Wetterdaten: Woche 09.03.09 - 15.03.09 (KW11)
Datum Zeit Temperatur Luftfeuchte Luftdruck Niederschlag Wind Richtung Sonnenschein Solar Taupunkt Windchill Windben
09.03.2009 00:00 6.1 C 92 % 1008.8 hPa 1.4 l/m 15.0 km/h (3 Bft) W 0.00 h 0 W/m 4.9 C 3.1 C 22.8 km/h (4 Bft)
09.03.2009 01:00 5.4 C 89 % 1008.8 hPa 1.2 l/m 16.4 km/h (3 Bft) W-NW 0.00 h 0 W/m 3.6 C 2.1 C 24.5 km/h (4 Bft)
09.03.2009 02:00 4.8 C 88 % 1009.0 hPa 1.2 l/m 17.8 km/h (3 Bft) W 0.00 h 0 W/m 2.9 C 1.3 C 26.6 km/h (4 Bft)
09.03.2009 03:00 2.9 C 91 % 1010.0 hPa 1.2 l/m 22.8 km/h (4 Bft) W 0.00 h 0 W/m 1.6 C -1.8 C 34.2 km/h (5 Bft)
09.03.2009 04:00 2.6 C 91 % 1011.3 hPa 0.0 l/m 20.1 km/h (4 Bft) W 0.00 h 0 W/m 1.3 C -2.0 C 30.6 km/h (5 Bft)
09.03.2009 05:00 3.1 C 85 % 1012.7 hPa 0.0 l/m 15.1 km/h (3 Bft) W 0.00 h 0 W/m 0.9 C -0.5 C 23.6 km/h (4 Bft)
09.03.2009 06:00 3.3 C 78 % 1013.2 hPa 0.0 l/m 10.5 km/h (2 Bft) W-SW 0.00 h 0 W/m -0.1 C 0.6 C 16.0 km/h (3 Bft)
09.03.2009 07:00 3.7 C 73 % 1014.1 hPa 0.0 l/m 13.9 km/h (3 Bft) W 0.00 h 14 W/m -0.8 C 0.4 C 21.7 km/h (4 Bft)
09.03.2009 08:00 3.7 C 74 % 1015.0 hPa 0.0 l/m 14.6 km/h (3 Bft) W 0.00 h 47 W/m -0.5 C 0.3 C 21.4 km/h (4 Bft)
09.03.2009 09:00 4.0 C 71 % 1015.5 hPa 0.0 l/m 12.0 km/h (2 Bft) W 0.00 h 85 W/m -0.8 C 1.2 C 18.7 km/h (3 Bft)
09.03.2009 10:00 4.5 C 67 % 1015.6 hPa 0.0 l/m 14.1 km/h (3 Bft) W 0.02 h 176 W/m -1.2 C 1.4 C 21.4 km/h (4 Bft)
09.03.2009 11:00 6.0 C 57 % 1015.6 hPa 0.0 l/m 15.9 km/h (3 Bft) W 0.75 h 569 W/m -1.8 C 3.0 C 24.1 km/h (4 Bft)
09.03.2009 12:00 6.9 C 52 % 1015.7 hPa 0.0 l/m 17.6 km/h (3 Bft) W 0.85 h 634 W/m -2.2 C 3.8 C 26.4 km/h (4 Bft)
09.03.2009 13:00 7.5 C 52 % 1015.5 hPa 0.0 l/m 18.9 km/h (3 Bft) W 0.72 h 579 W/m -1.8 C 4.3 C 28.4 km/h (4 Bft)
09.03.2009 14:00 7.3 C 56 % 1015.6 hPa 0.0 l/m 15.1 km/h (3 Bft) W 0.62 h 400 W/m -1.0 C 4.6 C 22.7 km/h (4 Bft)
09.03.2009 15:00 4.5 C 77 % 1017.0 hPa 0.8 l/m 12.9 km/h (3 Bft) W 0.22 h 134 W/m 0.7 C 1.6 C 20.1 km/h (4 Bft)
09.03.2009 16:00 3.9 C 86 % 1017.8 hPa 0.0 l/m 12.3 km/h (3 Bft) W 0.58 h 181 W/m 1.8 C 0.9 C 19.0 km/h (3 Bft)
09.03.2009 17:00 4.0 C 81 % 1018.2 hPa 0.0 l/m 10.8 km/h (2 Bft) W 0.17 h 49 W/m 1.1 C 1.4 C 17.0 km/h (3 Bft)
09.03.2009 18:00 3.3 C 84 % 1018.9 hPa 0.2 l/m 4.4 km/h (1 Bft) W-SW 0.00 h 8 W/m 0.8 C 2.4 C 7.3 km/h (2 Bft)
09.03.2009 19:00 2.8 C 87 % 1019.4 hPa 0.0 l/m 3.8 km/h (1 Bft) SO 0.00 h 0 W/m 0.9 C 2.1 C 6.5 km/h (2 Bft)
09.03.2009 20:00 2.4 C 87 % 1019.6 hPa 0.0 l/m 1.3 km/h (1 Bft) S 0.00 h 0 W/m 0.5 C 2.4 C 2.6 km/h (1 Bft)
09.03.2009 21:00 2.2 C 89 % 1019.9 hPa 0.0 l/m 1.8 km/h (1 Bft) S-SW 0.00 h 0 W/m 0.5 C 2.0 C 3.7 km/h (1 Bft)
09.03.2009 22:00 3.0 C 86 % 1019.9 hPa 0.0 l/m 3.9 km/h (1 Bft) S-SW 0.00 h 0 W/m 0.9 C 2.4 C 7.4 km/h (2 Bft)
09.03.2009 23:00 3.4 C 83 % 1020.4 hPa 0.0 l/m 4.4 km/h (1 Bft) SW 0.00 h 0 W/m 0.8 C 2.6 C 6.8 km/h (2 Bft)
10.03.2009 00:00 3.2 C 86 % 1020.6 hPa 0.0 l/m 4.1 km/h (1 Bft) S-SW 0.00 h 0 W/m 1.1 C 2.7 C 7.3 km/h (2 Bft)
10.03.2009 01:00 3.2 C 88 % 1020.5 hPa 0.2 l/m 5.3 km/h (1 Bft) S-SW 0.00 h 0 W/m 1.4 C 2.1 C 8.9 km/h (2 Bft)
10.03.2009 02:00 3.2 C 89 % 1020.4 hPa 0.0 l/m 5.0 km/h (1 Bft) SW 0.00 h 0 W/m 1.6 C 2.3 C 8.0 km/h (2 Bft)
10.03.2009 03:00 3.2 C 89 % 1020.3 hPa 0.0 l/m 5.9 km/h (2 Bft) SW 0.00 h 0 W/m 1.5 C 1.7 C 9.4 km/h (2 Bft)
10.03.2009 04:00 2.9 C 91 % 1020.2 hPa 0.2 l/m 5.2 km/h (1 Bft) S-SW 0.00 h 0 W/m 1.5 C 1.8 C 9.0 km/h (2 Bft)
10.03.2009 05:00 2.7 C 92 % 1020.1 hPa 0.2 l/m 3.7 km/h (1 Bft) S-SW 0.00 h 0 W/m 1.5 C 2.1 C 7.1 km/h (2 Bft)
10.03.2009 06:00 2.5 C 92 % 1019.7 hPa 0.0 l/m 3.1 km/h (1 Bft) S 0.00 h 0 W/m 1.4 C 2.2 C 6.4 km/h (2 Bft)
10.03.2009 07:00 2.6 C 92 % 1019.5 hPa 0.0 l/m 2.3 km/h (1 Bft) S-SW 0.00 h 28 W/m 1.5 C 2.5 C 5.3 km/h (1 Bft)
10.03.2009 08:00 3.3 C 92 % 1019.2 hPa 0.0 l/m 3.3 km/h (1 Bft) S 0.05 h 117 W/m 2.1 C 3.0 C 7.1 km/h (2 Bft)
10.03.2009 09:00 4.9 C 85 % 1018.5 hPa 0.0 l/m 5.9 km/h (2 Bft) S-SW 0.48 h 213 W/m 2.5 C 3.7 C 10.3 km/h (2 Bft)
10.03.2009 10:00 5.8 C 77 % 1017.5 hPa 0.0 l/m 8.2 km/h (2 Bft) S-SW 0.13 h 177 W/m 2.1 C 4.1 C 14.4 km/h (3 Bft)
10.03.2009 11:00 6.1 C 75 % 1016.9 hPa 0.2 l/m 9.1 km/h (2 Bft) SW 0.00 h 146 W/m 1.9 C 4.2 C 14.5 km/h (3 Bft)
10.03.2009 12:00 5.1 C 83 % 1016.5 hPa 1.0 l/m 8.6 km/h (2 Bft) SW 0.00 h 85 W/m 2.4 C 3.3 C 14.2 km/h (3 Bft)
10.03.2009 13:00 4.6 C 88 % 1015.8 hPa 1.2 l/m 8.4 km/h (2 Bft) SW 0.00 h 93 W/m 2.8 C 2.6 C 13.8 km/h (3 Bft)
10.03.2009 14:00 4.2 C 91 % 1015.1 hPa 1.0 l/m 7.4 km/h (2 Bft) S-SW 0.00 h 78 W/m 2.9 C 2.4 C 11.7 km/h (2 Bft)
10.03.2009 15:00 3.9 C 92 % 1014.6 hPa 1.2 l/m 7.8 km/h (2 Bft) SW 0.00 h 54 W/m 2.7 C 2.0 C 13.1 km/h (3 Bft)
10.03.2009 16:00 3.4 C 93 % 1014.1 hPa 1.6 l/m 7.4 km/h (2 Bft) SW 0.00 h 24 W/m 2.4 C 1.5 C 12.3 km/h (3 Bft)
10.03.2009 17:00 3.1 C 94 % 1013.6 hPa 0.4 l/m 6.5 km/h (2 Bft) S-SW 0.00 h 13 W/m 2.2 C 1.6 C 11.6 km/h (2 Bft)
10.03.2009 18:00 3.3 C 93 % 1013.6 hPa 0.8 l/m 4.3 km/h (1 Bft) S 0.00 h 5 W/m 2.3 C 2.6 C 7.5 km/h (2 Bft)
10.03.2009 19:00 3.3 C 94 % 1013.9 hPa 0.6 l/m 4.8 km/h (1 Bft) S-SW 0.00 h 0 W/m 2.4 C 2.3 C 9.0 km/h (2 Bft)
10.03.2009 20:00 3.5 C 94 % 1013.7 hPa 0.4 l/m 7.6 km/h (2 Bft) S-SW 0.00 h 0 W/m 2.6 C 1.5 C 13.5 km/h (3 Bft)
10.03.2009 21:00 3.4 C 93 % 1013.7 hPa 1.8 l/m 7.4 km/h (2 Bft) S-SW 0.00 h 0 W/m 2.4 C 1.4 C 12.4 km/h (3 Bft)
10.03.2009 22:00 3.0 C 94 % 1013.5 hPa 1.0 l/m 6.1 km/h (2 Bft) S-SW 0.00 h 0 W/m 2.2 C 1.5 C 10.5 km/h (2 Bft)
10.03.2009 23:00 3.2 C 96 % 1014.0 hPa 0.6 l/m 3.1 km/h (1 Bft) SW 0.00 h 0 W/m 2.6 C 2.9 C 5.6 km/h (1 Bft)
11.03.2009 00:00 3.9 C 97 % 1014.4 hPa 0.2 l/m 3.9 km/h (1 Bft) W-SW 0.00 h 0 W/m 3.4 C 3.3 C 7.1 km/h (2 Bft)
11.03.2009 01:00 4.6 C 96 % 1014.5 hPa 0.0 l/m 8.7 km/h (2 Bft) W 0.00 h 0 W/m 4.0 C 2.7 C 15.1 km/h (3 Bft)
11.03.2009 02:00 5.3 C 94 % 1014.8 hPa 1.4 l/m 10.4 km/h (2 Bft) W 0.00 h 0 W/m 4.4 C 3.0 C 16.9 km/h (3 Bft)
11.03.2009 03:00 5.3 C 95 % 1015.0 hPa 2.0 l/m 10.9 km/h (2 Bft) W 0.00 h 0 W/m 4.6 C 3.1 C 17.6 km/h (3 Bft)
11.03.2009 04:00 5.3 C 94 % 1015.6 hPa 1.6 l/m 9.2 km/h (2 Bft) W-NW 0.00 h 0 W/m 4.5 C 3.4 C 14.3 km/h (3 Bft)
11.03.2009 05:00 4.6 C 94 % 1016.8 hPa 0.0 l/m 3.1 km/h (1 Bft) NW 0.00 h 0 W/m 3.7 C 4.3 C 5.3 km/h (1 Bft)
11.03.2009 06:00 3.6 C 94 % 1018.1 hPa 0.0 l/m 1.2 km/h (1 Bft) O 0.03 h 7 W/m 2.7 C 3.5 C 2.1 km/h (1 Bft)
11.03.2009 07:00 2.7 C 95 % 1019.2 hPa 0.0 l/m 3.2 km/h (1 Bft) O 0.48 h 63 W/m 2.0 C 2.2 C 4.7 km/h (1 Bft)
11.03.2009 08:00 3.7 C 96 % 1020.0 hPa 0.0 l/m 1.6 km/h (1 Bft) O 0.58 h 194 W/m 3.2 C 3.7 C 3.0 km/h (1 Bft)
11.03.2009 09:00 5.6 C 86 % 1020.9 hPa 0.0 l/m 2.2 km/h (1 Bft) N 0.02 h 159 W/m 3.5 C 5.4 C 4.5 km/h (1 Bft)
11.03.2009 10:00 6.3 C 72 % 1021.9 hPa 0.0 l/m 3.4 km/h (1 Bft) N-NW 0.32 h 368 W/m 1.5 C 6.0 C 5.9 km/h (2 Bft)
11.03.2009 11:00 6.8 C 61 % 1022.5 hPa 0.0 l/m 8.6 km/h (2 Bft) W 0.10 h 231 W/m -0.2 C 5.1 C 13.9 km/h (3 Bft)
11.03.2009 12:00 6.9 C 60 % 1023.4 hPa 0.0 l/m 8.7 km/h (2 Bft) N-NW 0.40 h 391 W/m -0.3 C 5.3 C 14.0 km/h (3 Bft)
11.03.2009 13:00 7.9 C 50 % 1023.6 hPa 0.0 l/m 8.1 km/h (2 Bft) N-NW 0.72 h 504 W/m -1.8 C 6.5 C 13.0 km/h (3 Bft)
11.03.2009 14:00 8.1 C 51 % 1023.4 hPa 0.0 l/m 10.0 km/h (2 Bft) W-NW 0.78 h 495 W/m -1.5 C 6.5 C 15.8 km/h (3 Bft)
11.03.2009 15:00 7.4 C 54 % 1023.7 hPa 0.0 l/m 10.2 km/h (2 Bft) W 0.48 h 283 W/m -1.4 C 5.6 C 15.8 km/h (3 Bft)
11.03.2009 16:00 7.9 C 51 % 1024.0 hPa 0.0 l/m 8.0 km/h (2 Bft) W 0.82 h 235 W/m -1.5 C 6.6 C 11.9 km/h (2 Bft)
11.03.2009 17:00 7.3 C 53 % 1024.5 hPa 0.0 l/m 8.4 km/h (2 Bft) W 0.28 h 77 W/m -1.7 C 5.8 C 13.0 km/h (3 Bft)
11.03.2009 18:00 6.1 C 60 % 1025.4 hPa 0.0 l/m 3.0 km/h (1 Bft) NW 0.02 h 12 W/m -1.1 C 5.8 C 5.1 km/h (1 Bft)
11.03.2009 19:00 4.0 C 68 % 1026.3 hPa 0.0 l/m 0.9 km/h (0 Bft) NW 0.00 h 0 W/m -1.3 C 4.0 C 1.8 km/h (1 Bft)
11.03.2009 20:00 2.4 C 76 % 1026.9 hPa 0.0 l/m 0.7 km/h (0 Bft) N-NO 0.00 h 0 W/m -1.4 C 2.4 C 1.6 km/h (1 Bft)
11.03.2009 21:00 1.2 C 81 % 1027.4 hPa 0.0 l/m 2.6 km/h (1 Bft) O 0.00 h 0 W/m -1.6 C 0.9 C 3.9 km/h (1 Bft)
11.03.2009 22:00 0.3 C 85 % 1027.9 hPa 0.0 l/m 1.7 km/h (1 Bft) O-SO 0.00 h 0 W/m -2.0 C -0.0 C 2.7 km/h (1 Bft)
11.03.2009 23:00 -0.5 C 88 % 1028.0 hPa 0.0 l/m 1.3 km/h (1 Bft) O-SO 0.00 h 0 W/m -2.3 C -0.6 C 2.2 km/h (1 Bft)
12.03.2009 00:00 -1.0 C 89 % 1027.9 hPa 0.0 l/m 0.8 km/h (0 Bft) O-SO 0.00 h 0 W/m -2.5 C -1.0 C 1.2 km/h (1 Bft)
12.03.2009 01:00 -1.4 C 91 % 1027.9 hPa 0.0 l/m 0.4 km/h (0 Bft) O-SO 0.00 h 0 W/m -2.6 C -1.4 C 0.7 km/h (0 Bft)
12.03.2009 02:00 -1.6 C 92 % 1027.8 hPa 0.0 l/m 0.0 km/h (0 Bft) O-SO 0.00 h 0 W/m -2.7 C -1.6 C 0.2 km/h (0 Bft)
12.03.2009 03:00 -1.9 C 93 % 1027.4 hPa 0.0 l/m 1.2 km/h (1 Bft) O-SO 0.00 h 0 W/m -2.9 C -2.0 C 1.8 km/h (1 Bft)
12.03.2009 04:00 -2.1 C 93 % 1027.2 hPa 0.0 l/m 1.3 km/h (1 Bft) O-SO 0.00 h 0 W/m -3.1 C -2.2 C 2.0 km/h (1 Bft)
12.03.2009 05:00 -2.3 C 94 % 1027.3 hPa 0.0 l/m 0.0 km/h (0 Bft) N 0.00 h 0 W/m -3.1 C -2.3 C 0.0 km/h (0 Bft)
12.03.2009 06:00 -2.0 C 95 % 1027.6 hPa 0.0 l/m 0.2 km/h (0 Bft) O-SO 0.00 h 5 W/m -2.8 C -2.0 C 0.5 km/h (0 Bft)
12.03.2009 07:00 -1.6 C 96 % 1028.0 hPa 0.0 l/m 0.2 km/h (0 Bft) O-SO 0.00 h 25 W/m -2.2 C -1.6 C 0.8 km/h (0 Bft)
12.03.2009 08:00 -0.7 C 96 % 1028.6 hPa 0.0 l/m 1.7 km/h (1 Bft) O-SO 0.00 h 83 W/m -1.3 C -0.9 C 3.1 km/h (1 Bft)
12.03.2009 09:00 0.3 C 96 % 1028.9 hPa 0.0 l/m 0.5 km/h (0 Bft) O-SO 0.00 h 131 W/m -0.3 C 0.2 C 1.6 km/h (1 Bft)
12.03.2009 10:00 2.0 C 91 % 1028.7 hPa 0.0 l/m 2.5 km/h (1 Bft) S-SO 0.55 h 314 W/m 0.6 C 1.7 C 4.9 km/h (1 Bft)
12.03.2009 11:00 4.7 C 74 % 1028.1 hPa 0.0 l/m 4.1 km/h (1 Bft) S 0.97 h 395 W/m 0.5 C 4.2 C 7.0 km/h (2 Bft)
12.03.2009 12:00 6.2 C 66 % 1027.4 hPa 0.0 l/m 3.7 km/h (1 Bft) S 0.17 h 297 W/m 0.3 C 5.9 C 7.0 km/h (2 Bft)
12.03.2009 13:00 6.9 C 61 % 1026.6 hPa 0.0 l/m 5.0 km/h (1 Bft) S 0.00 h 204 W/m -0.2 C 6.3 C 8.6 km/h (2 Bft)
12.03.2009 14:00 7.0 C 60 % 1025.8 hPa 0.0 l/m 4.4 km/h (1 Bft) SW 0.00 h 102 W/m -0.2 C 6.6 C 7.3 km/h (2 Bft)
12.03.2009 15:00 7.5 C 60 % 1025.6 hPa 0.0 l/m 2.0 km/h (1 Bft) W-SW 0.00 h 120 W/m 0.3 C 7.5 C 3.9 km/h (1 Bft)
12.03.2009 16:00 7.8 C 59 % 1024.8 hPa 0.0 l/m 3.0 km/h (1 Bft) SW 0.00 h 68 W/m 0.3 C 7.7 C 5.2 km/h (1 Bft)
12.03.2009 17:00 7.3 C 61 % 1024.7 hPa 0.0 l/m 2.4 km/h (1 Bft) SW 0.00 h 22 W/m 0.3 C 7.3 C 4.7 km/h (1 Bft)
12.03.2009 18:00 7.0 C 62 % 1024.7 hPa 0.0 l/m 2.2 km/h (1 Bft) S-SO 0.00 h 6 W/m 0.3 C 6.8 C 4.3 km/h (1 Bft)
12.03.2009 19:00 6.8 C 64 % 1024.7 hPa 0.0 l/m 3.0 km/h (1 Bft) S-SO 0.00 h 0 W/m 0.4 C 6.5 C 5.7 km/h (1 Bft)
12.03.2009 20:00 6.5 C 65 % 1024.5 hPa 0.0 l/m 3.6 km/h (1 Bft) S-SW 0.00 h 0 W/m 0.5 C 6.3 C 6.5 km/h (2 Bft)
12.03.2009 21:00 6.6 C 66 % 1024.4 hPa 0.0 l/m 4.0 km/h (1 Bft) S 0.00 h 0 W/m 0.7 C 6.1 C 7.2 km/h (2 Bft)
12.03.2009 22:00 6.4 C 67 % 1024.0 hPa 0.0 l/m 2.2 km/h (1 Bft) S 0.00 h 0 W/m 0.7 C 6.2 C 4.5 km/h (1 Bft)
12.03.2009 23:00 6.4 C 68 % 1023.5 hPa 0.0 l/m 3.5 km/h (1 Bft) W-SW 0.00 h 0 W/m 1.0 C 6.1 C 5.9 km/h (2 Bft)
13.03.2009 00:00 6.4 C 71 % 1023.2 hPa 0.0 l/m 2.8 km/h (1 Bft) SW 0.00 h 0 W/m 1.5 C 6.2 C 5.0 km/h (1 Bft)
13.03.2009 01:00 6.3 C 72 % 1022.9 hPa 0.0 l/m 2.0 km/h (1 Bft) SW 0.00 h 0 W/m 1.6 C 6.3 C 4.8 km/h (1 Bft)
13.03.2009 02:00 6.3 C 72 % 1022.8 hPa 0.0 l/m 2.2 km/h (1 Bft) S 0.00 h 0 W/m 1.6 C 6.2 C 4.6 km/h (1 Bft)
13.03.2009 03:00 6.4 C 71 % 1022.4 hPa 0.0 l/m 3.5 km/h (1 Bft) SW 0.00 h 0 W/m 1.5 C 6.2 C 6.7 km/h (2 Bft)
13.03.2009 04:00 6.4 C 72 % 1022.1 hPa 0.0 l/m 3.9 km/h (1 Bft) S-SO 0.00 h 0 W/m 1.7 C 5.9 C 7.4 km/h (2 Bft)
13.03.2009 05:00 6.4 C 73 % 1022.0 hPa 0.0 l/m 5.6 km/h (1 Bft) S 0.00 h 0 W/m 1.9 C 5.6 C 9.7 km/h (2 Bft)
13.03.2009 06:00 6.4 C 74 % 1022.3 hPa 0.0 l/m 2.7 km/h (1 Bft) S-SO 0.00 h 7 W/m 2.2 C 6.1 C 4.6 km/h (1 Bft)
13.03.2009 07:00 6.0 C 77 % 1022.9 hPa 0.0 l/m 1.4 km/h (1 Bft) O-SO 0.00 h 33 W/m 2.2 C 6.0 C 2.7 km/h (1 Bft)
13.03.2009 08:00 7.0 C 74 % 1023.1 hPa 0.0 l/m 4.7 km/h (1 Bft) W-SW 0.35 h 156 W/m 2.7 C 6.5 C 7.4 km/h (2 Bft)
13.03.2009 09:00 9.6 C 67 % 1022.8 hPa 0.0 l/m 8.6 km/h (2 Bft) W 0.62 h 283 W/m 3.8 C 8.5 C 13.7 km/h (3 Bft)
13.03.2009 10:00 10.2 C 66 % 1022.8 hPa 0.0 l/m 8.8 km/h (2 Bft) W-SW 0.63 h 389 W/m 4.2 C 10.0 C 13.3 km/h (3 Bft)
13.03.2009 11:00 11.3 C 62 % 1022.6 hPa 0.0 l/m 10.0 km/h (2 Bft) W-SW 0.80 h 501 W/m 4.3 C 11.3 C 16.1 km/h (3 Bft)
13.03.2009 12:00 12.2 C 58 % 1022.2 hPa 0.0 l/m 10.7 km/h (2 Bft) W 0.40 h 420 W/m 4.2 C 12.2 C 16.5 km/h (3 Bft)
13.03.2009 13:00 12.3 C 57 % 1021.7 hPa 0.0 l/m 9.0 km/h (2 Bft) W-SW 0.22 h 316 W/m 4.1 C 12.3 C 14.1 km/h (3 Bft)
13.03.2009 14:00 13.6 C 53 % 1021.2 hPa 0.0 l/m 9.9 km/h (2 Bft) W 1.00 h 592 W/m 4.3 C 13.6 C 15.6 km/h (3 Bft)
13.03.2009 15:00 13.7 C 52 % 1020.9 hPa 0.0 l/m 7.8 km/h (2 Bft) W-SW 0.98 h 355 W/m 4.1 C 13.7 C 11.8 km/h (2 Bft)
13.03.2009 16:00 12.9 C 55 % 1020.8 hPa 0.0 l/m 6.7 km/h (2 Bft) W 0.62 h 174 W/m 4.1 C 12.9 C 10.1 km/h (2 Bft)
13.03.2009 17:00 12.3 C 57 % 1020.9 hPa 0.0 l/m 3.1 km/h (1 Bft) W 0.30 h 82 W/m 4.0 C 12.3 C 5.5 km/h (1 Bft)
13.03.2009 18:00 11.0 C 63 % 1020.9 hPa 0.0 l/m 0.4 km/h (0 Bft) S-SW 0.02 h 13 W/m 4.3 C 11.0 C 1.3 km/h (1 Bft)
13.03.2009 19:00 9.2 C 71 % 1021.1 hPa 0.0 l/m 1.5 km/h (1 Bft) O-SO 0.00 h 0 W/m 4.3 C 9.2 C 2.7 km/h (1 Bft)
13.03.2009 20:00 7.1 C 80 % 1021.2 hPa 0.0 l/m 2.4 km/h (1 Bft) O-SO 0.00 h 0 W/m 3.8 C 7.0 C 3.5 km/h (1 Bft)
13.03.2009 21:00 5.9 C 84 % 1021.1 hPa 0.0 l/m 2.5 km/h (1 Bft) O-SO 0.00 h 0 W/m 3.3 C 5.7 C 3.5 km/h (1 Bft)
13.03.2009 22:00 5.2 C 85 % 1021.1 hPa 0.0 l/m 0.6 km/h (0 Bft) O-SO 0.00 h 0 W/m 2.9 C 5.2 C 1.3 km/h (1 Bft)
13.03.2009 23:00 4.1 C 88 % 1021.1 hPa 0.0 l/m 0.9 km/h (0 Bft) O-SO 0.00 h 0 W/m 2.3 C 4.1 C 1.6 km/h (1 Bft)
14.03.2009 00:00 3.3 C 90 % 1020.7 hPa 0.0 l/m 1.6 km/h (1 Bft) O-SO 0.00 h 0 W/m 1.8 C 3.3 C 2.6 km/h (1 Bft)
14.03.2009 01:00 2.7 C 92 % 1020.7 hPa 0.0 l/m 0.7 km/h (0 Bft) O-SO 0.00 h 0 W/m 1.5 C 2.7 C 1.6 km/h (1 Bft)
14.03.2009 02:00 2.4 C 93 % 1020.6 hPa 0.0 l/m 0.7 km/h (0 Bft) O-SO 0.00 h 0 W/m 1.4 C 2.4 C 1.6 km/h (1 Bft)
14.03.2009 03:00 2.2 C 93 % 1020.1 hPa 0.0 l/m 0.3 km/h (0 Bft) O-SO 0.00 h 0 W/m 1.3 C 2.2 C 0.8 km/h (0 Bft)
14.03.2009 04:00 1.7 C 94 % 1019.7 hPa 0.0 l/m 1.4 km/h (1 Bft) O-SO 0.00 h 0 W/m 0.9 C 1.7 C 2.3 km/h (1 Bft)
14.03.2009 05:00 1.5 C 95 % 1019.7 hPa 0.0 l/m 1.2 km/h (1 Bft) O-SO 0.00 h 0 W/m 0.8 C 1.5 C 2.0 km/h (1 Bft)
14.03.2009 06:00 1.1 C 95 % 1019.8 hPa 0.0 l/m 0.4 km/h (0 Bft) O-SO 0.03 h 10 W/m 0.4 C 1.1 C 0.8 km/h (0 Bft)
14.03.2009 07:00 0.9 C 96 % 1020.3 hPa 0.0 l/m 0.2 km/h (0 Bft) O-SO 0.40 h 64 W/m 0.3 C 0.9 C 0.4 km/h (0 Bft)
14.03.2009 08:00 2.2 C 97 % 1020.6 hPa 0.0 l/m 1.0 km/h (0 Bft) O-SO 0.63 h 170 W/m 1.7 C 2.1 C 2.2 km/h (1 Bft)
14.03.2009 09:00 5.1 C 91 % 1020.4 hPa 0.0 l/m 2.2 km/h (1 Bft) O-SO 1.00 h 343 W/m 3.8 C 5.0 C 4.5 km/h (1 Bft)
14.03.2009 10:00 8.0 C 78 % 1020.0 hPa 0.0 l/m 1.8 km/h (1 Bft) W-SW 0.40 h 300 W/m 4.3 C 8.0 C 4.2 km/h (1 Bft)
14.03.2009 11:00 10.2 C 69 % 1019.6 hPa 0.0 l/m 3.5 km/h (1 Bft) S-SW 0.80 h 383 W/m 4.8 C 10.2 C 6.9 km/h (2 Bft)
14.03.2009 12:00 11.9 C 64 % 1019.0 hPa 0.0 l/m 3.4 km/h (1 Bft) SW 0.58 h 378 W/m 5.2 C 11.9 C 6.4 km/h (2 Bft)
14.03.2009 13:00 13.3 C 58 % 1018.3 hPa 0.0 l/m 4.5 km/h (1 Bft) W-SW 0.87 h 382 W/m 5.1 C 13.3 C 7.4 km/h (2 Bft)
14.03.2009 14:00 13.8 C 57 % 1017.9 hPa 0.0 l/m 5.0 km/h (1 Bft) W-SW 0.63 h 308 W/m 5.4 C 13.8 C 8.5 km/h (2 Bft)
14.03.2009 15:00 14.2 C 55 % 1017.8 hPa 0.0 l/m 5.9 km/h (2 Bft) W-SW 0.22 h 236 W/m 5.4 C 14.2 C 9.3 km/h (2 Bft)
14.03.2009 16:00 14.2 C 54 % 1017.9 hPa 0.0 l/m 5.5 km/h (1 Bft) W-SW 0.00 h 141 W/m 5.0 C 14.2 C 9.2 km/h (2 Bft)
14.03.2009 17:00 13.8 C 55 % 1018.4 hPa 0.0 l/m 2.7 km/h (1 Bft) W 0.00 h 37 W/m 5.0 C 13.8 C 5.0 km/h (1 Bft)
14.03.2009 18:00 12.4 C 64 % 1018.7 hPa 0.0 l/m 2.7 km/h (1 Bft) SO 0.00 h 11 W/m 5.8 C 12.4 C 4.1 km/h (1 Bft)
14.03.2009 19:00 11.3 C 69 % 1019.3 hPa 0.0 l/m 2.9 km/h (1 Bft) O-SO 0.00 h 0 W/m 5.8 C 11.3 C 3.9 km/h (1 Bft)
14.03.2009 20:00 10.2 C 73 % 1019.8 hPa 0.0 l/m 2.1 km/h (1 Bft) O-SO 0.00 h 0 W/m 5.6 C 10.2 C 3.4 km/h (1 Bft)
14.03.2009 21:00 8.2 C 79 % 1020.1 hPa 0.0 l/m 1.5 km/h (1 Bft) O-SO 0.00 h 0 W/m 4.8 C 8.2 C 2.6 km/h (1 Bft)
14.03.2009 22:00 7.2 C 83 % 1020.6 hPa 0.0 l/m 0.4 km/h (0 Bft) O-SO 0.00 h 0 W/m 4.5 C 7.2 C 1.1 km/h (1 Bft)
14.03.2009 23:00 6.6 C 85 % 1020.9 hPa 0.0 l/m 3.0 km/h (1 Bft) O-SO 0.00 h 0 W/m 4.3 C 6.4 C 4.4 km/h (1 Bft)
15.03.2009 00:00 6.7 C 86 % 1021.2 hPa 0.0 l/m 0.7 km/h (0 Bft) O-SO 0.00 h 0 W/m 4.5 C 6.7 C 1.6 km/h (1 Bft)
15.03.2009 01:00 7.3 C 86 % 1021.8 hPa 0.0 l/m 1.6 km/h (1 Bft) O 0.00 h 0 W/m 5.2 C 7.3 C 3.8 km/h (1 Bft)
15.03.2009 02:00 8.8 C 84 % 1021.7 hPa 0.0 l/m 1.8 km/h (1 Bft) W-NW 0.00 h 0 W/m 6.3 C 8.7 C 3.8 km/h (1 Bft)
15.03.2009 03:00 9.2 C 83 % 1022.1 hPa 0.0 l/m 3.2 km/h (1 Bft) NW 0.00 h 0 W/m 6.5 C 9.1 C 5.5 km/h (1 Bft)
15.03.2009 04:00 8.9 C 79 % 1022.9 hPa 0.0 l/m 11.0 km/h (2 Bft) W-NW 0.00 h 0 W/m 5.6 C 7.2 C 16.8 km/h (3 Bft)
15.03.2009 05:00 8.4 C 77 % 1023.7 hPa 0.0 l/m 11.6 km/h (2 Bft) W 0.00 h 0 W/m 4.6 C 6.5 C 18.0 km/h (3 Bft)
15.03.2009 06:00 7.7 C 79 % 1024.6 hPa 0.0 l/m 11.3 km/h (2 Bft) W 0.07 h 12 W/m 4.3 C 5.7 C 17.7 km/h (3 Bft)
15.03.2009 07:00 7.4 C 79 % 1025.5 hPa 0.0 l/m 13.1 km/h (3 Bft) W 0.07 h 51 W/m 4.1 C 5.0 C 20.6 km/h (4 Bft)
15.03.2009 08:00 7.9 C 77 % 1026.5 hPa 0.0 l/m 12.1 km/h (2 Bft) W 0.43 h 144 W/m 4.2 C 5.8 C 19.0 km/h (3 Bft)
15.03.2009 09:00 8.8 C 74 % 1027.3 hPa 0.0 l/m 8.5 km/h (2 Bft) W-SW 0.93 h 357 W/m 4.3 C 7.5 C 13.4 km/h (3 Bft)
15.03.2009 10:00 10.4 C 65 % 1027.3 hPa 0.0 l/m 8.8 km/h (2 Bft) W-SW 0.97 h 558 W/m 4.0 C 10.1 C 14.1 km/h (3 Bft)
15.03.2009 11:00 11.4 C 55 % 1027.1 hPa 0.0 l/m 8.7 km/h (2 Bft) W 0.32 h 357 W/m 2.8 C 11.4 C 14.7 km/h (3 Bft)
15.03.2009 12:00 11.5 C 53 % 1027.1 hPa 0.0 l/m 7.1 km/h (2 Bft) W-NW 0.18 h 285 W/m 2.2 C 11.5 C 10.8 km/h (2 Bft)
15.03.2009 13:00 11.7 C 50 % 1026.8 hPa 0.0 l/m 9.4 km/h (2 Bft) W 0.20 h 304 W/m 1.8 C 11.7 C 14.7 km/h (3 Bft)
15.03.2009 14:00 11.6 C 50 % 1026.7 hPa 0.0 l/m 9.7 km/h (2 Bft) W-NW 0.00 h 196 W/m 1.5 C 11.6 C 15.6 km/h (3 Bft)
15.03.2009 15:00 11.4 C 51 % 1026.8 hPa 0.0 l/m 8.6 km/h (2 Bft) W 0.00 h 151 W/m 1.6 C 11.4 C 13.6 km/h (3 Bft)
15.03.2009 16:00 11.5 C 50 % 1026.8 hPa 0.0 l/m 5.2 km/h (1 Bft) W-NW 0.03 h 101 W/m 1.5 C 11.5 C 8.4 km/h (2 Bft)
15.03.2009 17:00 11.4 C 51 % 1026.9 hPa 0.0 l/m 5.0 km/h (1 Bft) NW 0.17 h 72 W/m 1.5 C 11.4 C 8.4 km/h (2 Bft)
15.03.2009 18:00 10.5 C 54 % 1027.8 hPa 0.0 l/m 8.7 km/h (2 Bft) N-NW 0.00 h 14 W/m 1.6 C 10.4 C 14.5 km/h (3 Bft)
15.03.2009 19:00 9.4 C 56 % 1029.0 hPa 0.0 l/m 3.0 km/h (1 Bft) N-NO 0.00 h 0 W/m 1.1 C 9.2 C 6.1 km/h (2 Bft)
15.03.2009 20:00 8.7 C 58 % 1029.7 hPa 0.0 l/m 2.5 km/h (1 Bft) N 0.00 h 0 W/m 0.9 C 8.5 C 5.1 km/h (1 Bft)
15.03.2009 21:00 8.4 C 60 % 1030.1 hPa 0.0 l/m 3.0 km/h (1 Bft) N 0.00 h 0 W/m 1.0 C 8.2 C 5.7 km/h (1 Bft)
15.03.2009 22:00 7.6 C 66 % 1030.1 hPa 0.0 l/m 2.8 km/h (1 Bft) O-SO 0.00 h 0 W/m 1.7 C 7.5 C 4.0 km/h (1 Bft)
15.03.2009 23:00 7.0 C 72 % 1030.5 hPa 0.0 l/m 1.7 km/h (1 Bft) S-SO 0.00 h 0 W/m 2.3 C 7.0 C 3.3 km/h (1 Bft)
Min-Datum _ 12.03.09 11.03.09 09.03.09 - 09.03.09 - - - 12.03.09 12.03.09 09.03.09
_ Min-Zeit 06:00 13:22 01:00 - 18:20 - - - 04:49 04:49 18:27
Minimum _ -2.4 C 47 % 1008.5 hPa - 0.0 km/h (0 Bft) - - - -3.3 C -4.3 C 0.0 km/h (0 Bft)
Max-Datum _ 14.03.09 14.03.09 15.03.09 11.03.09 09.03.09 - 13.03.09 11.03.09 15.03.09 14.03.09 09.03.09
_ Max-Zeit 15:58 08:36 23:30 03:00 03:19 - 09:11 12:45 02:56 15:58 03:18
Maximum _ 14.3 C 98 % 1030.6 hPa 2.0 l/m 38.2 km/h
W (5 Bft)
- 0.03 h 861 W/m 6.8 C 14.3 C 55.6 km/h
W (7 Bft)
Durchschnitt _ 5.9 C 77 % 1021.2 hPa #23.6 l/m 5.6 km/h (1 Bft) W #26:10 h 195 W/m 1.8 C 5.1 C 9.2 km/h (2 Bft)
© Kaiko 2009